createdAt,value
2019-05-13T00:01:07.071Z,1.50
2019-05-13T00:03:35.691Z,1.17
2019-05-13T00:06:05.119Z,1.17
2019-05-13T00:08:34.642Z,1.30
2019-05-13T00:11:04.577Z,1.30
2019-05-13T00:13:34.194Z,1.87
2019-05-13T00:16:03.910Z,1.60
2019-05-13T00:18:34.012Z,1.30
2019-05-13T00:21:03.915Z,1.20
2019-05-13T00:23:33.957Z,1.50
2019-05-13T00:26:04.020Z,1.10
2019-05-13T00:28:34.473Z,1.40
2019-05-13T00:31:04.014Z,1.50
2019-05-13T00:33:34.091Z,1.47
2019-05-13T00:36:04.164Z,1.27
2019-05-13T00:38:33.800Z,1.33
2019-05-13T00:41:03.788Z,1.23
2019-05-13T00:43:34.002Z,1.33
2019-05-13T00:46:04.047Z,1.43
2019-05-13T00:48:33.721Z,1.30
2019-05-13T00:51:03.946Z,1.40
2019-05-13T00:53:35.340Z,1.20
2019-05-13T00:56:05.006Z,1.20
2019-05-13T00:58:34.532Z,1.50
2019-05-13T01:01:03.960Z,1.07
2019-05-13T01:03:33.953Z,1.50
2019-05-13T01:06:04.335Z,1.43
2019-05-13T01:08:34.036Z,1.20
2019-05-13T01:11:04.277Z,1.20
2019-05-13T01:13:34.305Z,1.20
2019-05-13T01:16:04.044Z,1.20
2019-05-13T01:18:34.157Z,1.30
2019-05-13T01:21:04.459Z,1.17
2019-05-13T01:23:34.503Z,1.10
2019-05-13T01:26:04.180Z,1.30
2019-05-13T01:28:34.438Z,1.10
2019-05-13T01:31:04.310Z,1.20
2019-05-13T01:33:35.122Z,1.00
2019-05-13T01:36:05.403Z,1.43
2019-05-13T01:38:35.010Z,1.33
2019-05-13T01:41:04.635Z,1.27
2019-05-13T01:43:34.239Z,1.00
2019-05-13T01:46:04.533Z,1.00
2019-05-13T01:48:34.175Z,1.10
2019-05-13T01:51:03.994Z,1.17
2019-05-13T01:53:33.827Z,1.30
2019-05-13T01:56:03.945Z,1.20
2019-05-13T01:58:34.095Z,0.90
2019-05-13T02:01:05.050Z,1.00
2019-05-13T02:03:34.899Z,1.40
2019-05-13T02:06:04.350Z,1.30
2019-05-13T02:08:33.947Z,1.30
2019-05-13T02:11:04.349Z,1.10
2019-05-13T02:13:34.512Z,1.60
2019-05-13T02:16:04.521Z,1.13
2019-05-13T02:18:34.376Z,1.07
2019-05-13T02:21:05.182Z,1.00
2019-05-13T02:23:35.167Z,1.30
2019-05-13T02:26:04.768Z,1.27
2019-05-13T02:28:34.273Z,1.33
2019-05-13T02:31:03.673Z,1.10
2019-05-13T02:33:34.154Z,1.43
2019-05-13T02:36:03.691Z,0.87
2019-05-13T02:38:35.433Z,1.87
2019-05-13T02:41:04.480Z,1.27
2019-05-13T02:43:34.203Z,1.30
2019-05-13T02:46:04.420Z,1.20
2019-05-13T02:48:34.201Z,1.20
2019-05-13T02:51:04.104Z,1.10
2019-05-13T02:53:33.921Z,1.30
2019-05-13T02:56:03.776Z,1.10
2019-05-13T02:58:33.888Z,0.90
2019-05-13T03:01:03.762Z,1.10
2019-05-13T03:03:33.336Z,1.10
2019-05-13T03:06:03.269Z,1.07
2019-05-13T03:08:43.718Z,1.27
2019-05-13T03:11:03.976Z,1.40
2019-05-13T03:13:33.508Z,1.10
2019-05-13T03:16:13.034Z,1.10
2019-05-13T03:18:43.557Z,1.00
2019-05-13T03:21:12.959Z,1.43
2019-05-13T03:23:44.328Z,1.17
2019-05-13T03:26:14.099Z,1.67
2019-05-13T03:28:44.195Z,1.47
2019-05-13T03:31:16.877Z,1.53
2019-05-13T03:33:47.049Z,1.00
2019-05-13T03:36:17.890Z,1.30
2019-05-13T03:39:01.780Z,1.10
2019-05-13T03:41:22.521Z,1.07
2019-05-13T03:43:53.558Z,1.10
2019-05-13T03:46:24.159Z,1.40
2019-05-13T03:48:55.127Z,1.10
2019-05-13T03:51:24.774Z,1.10
2019-05-13T03:53:54.289Z,1.50
2019-05-13T03:56:24.177Z,1.30
2019-05-13T03:58:54.326Z,1.67
2019-05-13T04:01:24.213Z,1.30
2019-05-13T04:03:53.694Z,0.90
2019-05-13T04:06:23.859Z,2.27
2019-05-13T04:08:54.197Z,1.70
2019-05-13T04:11:24.077Z,1.30
2019-05-13T04:13:53.583Z,1.50
2019-05-13T04:16:25.319Z,1.20
2019-05-13T04:18:54.972Z,1.40
2019-05-13T04:21:24.777Z,1.20
2019-05-13T04:23:54.532Z,1.40
2019-05-13T04:26:24.177Z,1.40
2019-05-13T04:28:53.721Z,1.13
2019-05-13T04:31:23.284Z,1.50
2019-05-13T04:33:53.580Z,1.20
2019-05-13T04:36:23.972Z,1.40
2019-05-13T04:38:53.537Z,1.30
2019-05-13T04:41:23.451Z,1.07
2019-05-13T04:43:53.883Z,1.17
2019-05-13T04:46:24.752Z,1.40
2019-05-13T04:48:54.186Z,1.33
2019-05-13T04:51:23.645Z,1.50
2019-05-13T04:53:56.921Z,1.30
2019-05-13T04:56:24.614Z,1.30
2019-05-13T04:58:54.132Z,1.33
2019-05-13T05:01:59.198Z,1.07
2019-05-13T05:04:43.642Z,1.67
2019-05-13T05:07:32.551Z,1.30
2019-05-13T05:10:33.086Z,1.37
2019-05-13T05:13:36.159Z,1.67
2019-05-13T05:16:33.735Z,1.20
2019-05-13T05:19:52.454Z,1.17
2019-05-13T05:22:35.458Z,1.30
2019-05-13T05:25:19.040Z,1.20
2019-05-13T05:28:44.658Z,1.00
2019-05-13T05:31:42.702Z,1.40
2019-05-13T05:34:33.044Z,1.00
2019-05-13T05:37:24.394Z,1.10
2019-05-13T05:39:56.350Z,1.07
2019-05-13T05:42:27.200Z,0.93
2019-05-13T05:44:58.266Z,1.03
2019-05-13T05:47:31.794Z,1.47
2019-05-13T05:50:03.207Z,0.90
2019-05-13T05:52:34.750Z,1.23
2019-05-13T05:55:04.535Z,0.80
2019-05-13T05:57:36.273Z,0.83
2019-05-13T06:00:06.277Z,1.00
2019-05-13T06:02:37.533Z,1.00
2019-05-13T06:05:07.052Z,0.80
2019-05-13T06:07:36.791Z,0.73
2019-05-13T06:10:06.378Z,0.87
2019-05-13T06:12:36.795Z,0.80
2019-05-13T06:15:06.655Z,0.80
2019-05-13T06:17:36.227Z,1.07
2019-05-13T06:20:06.035Z,0.90
2019-05-13T06:22:35.639Z,0.90
2019-05-13T06:25:05.435Z,1.00
2019-05-13T06:27:34.949Z,0.90
2019-05-13T06:30:04.654Z,0.90
2019-05-13T06:32:34.187Z,0.80
2019-05-13T06:35:03.908Z,0.90
2019-05-13T06:37:33.491Z,0.90
2019-05-13T06:40:02.940Z,0.93
2019-05-13T06:42:32.643Z,0.80
2019-05-13T06:45:02.380Z,0.77
2019-05-13T06:47:33.270Z,1.00
2019-05-13T06:50:03.540Z,1.00
2019-05-13T06:52:33.095Z,0.73
2019-05-13T06:55:03.022Z,1.10
2019-05-13T06:57:32.635Z,1.33
2019-05-13T07:00:02.268Z,1.00
2019-05-13T07:02:32.012Z,1.20
2019-05-13T07:05:02.500Z,1.10
2019-05-13T07:07:32.084Z,0.90
2019-05-13T07:10:02.495Z,0.97
2019-05-13T07:12:32.283Z,1.03
2019-05-13T07:15:02.634Z,0.80
2019-05-13T07:17:32.448Z,1.10
2019-05-13T07:20:02.465Z,1.00
2019-05-13T07:22:32.347Z,1.10
2019-05-13T07:25:02.703Z,0.90
2019-05-13T07:27:32.256Z,1.00
2019-05-13T07:30:02.407Z,1.17
2019-05-13T07:32:31.950Z,0.83
2019-05-13T07:35:03.880Z,0.80
2019-05-13T07:37:32.955Z,1.10
2019-05-13T07:40:02.854Z,1.40
2019-05-13T07:42:32.429Z,1.00
2019-05-13T07:45:01.892Z,1.20
2019-05-13T07:47:31.588Z,0.80
2019-05-13T07:50:02.553Z,1.00
2019-05-13T07:52:32.238Z,0.80
2019-05-13T07:55:01.867Z,1.00
2019-05-13T07:57:31.982Z,1.20
2019-05-13T08:00:02.212Z,0.87
2019-05-13T08:02:32.135Z,0.90
2019-05-13T08:05:02.596Z,0.80
2019-05-13T08:07:32.122Z,0.90
2019-05-13T08:10:03.611Z,1.00
2019-05-13T08:12:32.833Z,1.00
2019-05-13T08:15:03.333Z,0.77
2019-05-13T08:17:32.969Z,0.83
2019-05-13T08:20:03.038Z,0.90
2019-05-13T08:22:32.675Z,1.03
2019-05-13T08:25:03.212Z,0.90
2019-05-13T08:27:35.163Z,1.00
2019-05-13T08:30:04.510Z,1.20
2019-05-13T08:32:33.970Z,0.80
2019-05-13T08:35:08.869Z,1.10
2019-05-13T08:37:34.741Z,1.03
2019-05-13T08:40:04.472Z,1.00
2019-05-13T08:42:33.941Z,1.10
2019-05-13T08:45:03.420Z,0.90
2019-05-13T08:47:32.891Z,1.07
2019-05-13T08:50:04.363Z,1.13
2019-05-13T08:52:33.620Z,0.80
2019-05-13T08:55:03.163Z,1.20
2019-05-13T08:57:33.111Z,1.20
2019-05-13T09:02:52.177Z,0.93
2019-05-13T09:05:28.074Z,0.80
2019-05-13T09:08:07.007Z,0.90
2019-05-13T09:10:41.382Z,1.07
2019-05-13T09:13:12.680Z,0.97
2019-05-13T09:15:46.520Z,0.90
2019-05-13T09:18:19.032Z,0.97
2019-05-13T09:20:52.216Z,1.10
2019-05-13T09:23:22.335Z,1.00
2019-05-13T09:25:52.410Z,0.70
2019-05-13T09:28:22.920Z,0.87
2019-05-13T09:30:53.311Z,0.87
2019-05-13T09:33:22.930Z,0.80
2019-05-13T09:35:53.494Z,0.80
2019-05-13T09:38:23.343Z,0.80
2019-05-13T09:40:53.300Z,0.60
2019-05-13T09:43:22.990Z,1.00
2019-05-13T09:45:52.706Z,0.80
2019-05-13T09:48:23.022Z,0.90
2019-05-13T09:50:53.243Z,0.90
2019-05-13T09:53:23.004Z,0.60
2019-05-13T09:55:52.639Z,0.70
2019-05-13T09:58:22.753Z,0.90
2019-05-13T10:00:53.071Z,0.80
2019-05-13T10:03:28.876Z,0.80
2019-05-13T10:05:54.646Z,0.93
2019-05-13T10:08:23.982Z,0.80
2019-05-13T10:10:53.386Z,1.00
2019-05-13T10:13:23.390Z,1.07
2019-05-13T10:15:53.085Z,0.90
2019-05-13T10:18:22.505Z,1.00
2019-05-13T10:20:58.312Z,1.05
2019-05-13T10:23:26.445Z,0.60
2019-05-13T10:25:59.138Z,0.90
2019-05-13T10:28:31.765Z,0.90
2019-05-13T10:31:00.898Z,0.88
2019-05-13T10:33:31.994Z,0.55
2019-05-13T10:36:03.512Z,1.05
2019-05-13T10:38:33.750Z,0.82
2019-05-13T10:41:03.871Z,0.80
2019-05-13T10:43:39.111Z,0.95
2019-05-13T10:46:07.527Z,0.88
2019-05-13T10:48:37.304Z,1.33
2019-05-13T10:51:08.005Z,1.02
2019-05-13T10:53:39.177Z,0.85
2019-05-13T10:56:11.328Z,1.00
2019-05-13T10:58:42.699Z,1.00
2019-05-13T11:01:16.827Z,0.90
2019-05-13T11:04:02.794Z,0.80
2019-05-13T11:06:32.678Z,0.95
2019-05-13T11:09:02.768Z,0.75
2019-05-13T11:11:33.221Z,1.12
2019-05-13T11:14:10.041Z,0.90
2019-05-13T11:16:34.422Z,0.70
2019-05-13T11:19:05.201Z,0.98
2019-05-13T11:21:34.678Z,1.20
2019-05-13T11:24:04.221Z,1.00
2019-05-13T11:26:36.263Z,1.42
2019-05-13T11:29:05.079Z,1.30
2019-05-13T11:31:34.723Z,0.95
2019-05-13T11:34:05.450Z,1.60
2019-05-13T11:36:34.951Z,1.00
2019-05-13T11:39:06.424Z,0.88
2019-05-13T11:41:35.843Z,1.00
2019-05-13T11:44:12.872Z,1.15
2019-05-13T11:46:36.295Z,1.30
2019-05-13T11:49:05.835Z,0.90
2019-05-13T11:51:35.238Z,0.90
2019-05-13T11:54:04.762Z,0.93
2019-05-13T11:56:34.495Z,1.00
2019-05-13T11:59:04.513Z,0.80
2019-05-13T12:01:34.155Z,1.10
2019-05-13T12:04:05.961Z,1.05
2019-05-13T12:06:35.411Z,1.10
2019-05-13T12:09:07.191Z,0.95
2019-05-13T12:11:37.225Z,1.10
2019-05-13T12:14:06.859Z,1.10
2019-05-13T12:16:36.537Z,1.30
2019-05-13T12:19:08.120Z,1.00
2019-05-13T12:21:42.113Z,1.07
2019-05-13T12:24:11.326Z,0.90
2019-05-13T12:26:43.386Z,0.78
2019-05-13T12:29:18.611Z,1.30
2019-05-13T12:31:45.215Z,1.07
2019-05-13T12:34:14.858Z,1.27
2019-05-13T12:36:44.250Z,1.00
2019-05-13T12:39:14.435Z,1.00
2019-05-13T12:41:44.197Z,0.90
2019-05-13T12:44:13.592Z,1.00
2019-05-13T12:46:49.959Z,0.72
2019-05-13T12:49:14.724Z,1.20
2019-05-13T12:51:44.273Z,1.00
2019-05-13T12:54:14.277Z,1.00
2019-05-13T12:56:44.428Z,1.20
2019-05-13T12:59:14.002Z,1.55
2019-05-13T13:01:43.383Z,1.15
2019-05-13T13:04:12.771Z,1.30
2019-05-13T13:06:45.390Z,1.17
2019-05-13T13:09:13.333Z,1.10
2019-05-13T13:11:43.978Z,1.42
2019-05-13T13:14:15.655Z,1.20
2019-05-13T13:16:45.323Z,1.42
2019-05-13T13:19:15.260Z,1.12
2019-05-13T13:21:44.731Z,1.40
2019-05-13T13:24:14.216Z,1.27
2019-05-13T13:26:43.770Z,1.27
2019-05-13T13:29:13.179Z,1.05
2019-05-13T13:31:43.622Z,1.10
2019-05-13T13:34:17.946Z,1.02
2019-05-13T13:36:45.973Z,1.37
2019-05-13T13:39:15.975Z,1.10
2019-05-13T13:41:45.635Z,1.20
2019-05-13T13:44:15.172Z,0.93
2019-05-13T13:46:49.479Z,1.12
2019-05-13T13:49:15.971Z,1.10
2019-05-13T13:51:46.012Z,1.40
2019-05-13T13:54:15.465Z,1.07
2019-05-13T13:56:45.047Z,1.45
2019-05-13T13:59:14.714Z,1.00
2019-05-13T14:01:47.874Z,1.22
2019-05-13T14:04:17.500Z,1.00
2019-05-13T14:07:02.817Z,0.77
2019-05-13T14:09:18.185Z,1.07
2019-05-13T14:11:47.627Z,1.00
2019-05-13T14:14:17.072Z,1.00
2019-05-13T14:16:46.898Z,1.10
2019-05-13T14:19:16.552Z,1.10
2019-05-13T14:21:45.970Z,1.00
2019-05-13T14:24:15.364Z,1.00
2019-05-13T14:26:47.545Z,0.98
2019-05-13T14:29:16.834Z,1.30
2019-05-13T14:31:46.795Z,1.27
2019-05-13T14:34:16.645Z,1.10
2019-05-13T14:36:46.272Z,0.90
2019-05-13T14:39:16.082Z,0.90
2019-05-13T14:41:45.668Z,1.02
2019-05-13T14:44:15.227Z,1.02
2019-05-13T14:46:47.892Z,1.02
2019-05-13T14:49:16.206Z,1.02
2019-05-13T14:51:45.706Z,1.00
2019-05-13T14:54:15.687Z,1.12
2019-05-13T14:56:45.271Z,0.90
2019-05-13T14:59:15.235Z,1.00
2019-05-13T15:01:44.618Z,1.20
2019-05-13T15:04:14.259Z,1.02
2019-05-13T15:06:43.872Z,0.80
2019-05-13T15:09:13.651Z,1.02
2019-05-13T15:11:43.420Z,0.90
2019-05-13T15:14:13.119Z,1.22
2019-05-13T15:16:42.683Z,0.95
2019-05-13T15:19:12.253Z,1.20
2019-05-13T15:21:41.776Z,1.12
2019-05-13T15:24:12.360Z,1.17
2019-05-13T15:26:42.421Z,1.15
2019-05-13T15:29:11.970Z,1.30
2019-05-13T15:31:42.163Z,0.80
2019-05-13T15:34:11.818Z,1.00
2019-05-13T15:36:42.047Z,1.42
2019-05-13T15:39:11.947Z,0.90
2019-05-13T15:41:41.949Z,1.10
2019-05-13T15:44:11.629Z,1.10
2019-05-13T15:46:41.914Z,1.17
2019-05-13T15:49:12.426Z,1.20
2019-05-13T15:51:42.458Z,1.00
2019-05-13T15:54:15.443Z,1.02
2019-05-13T15:56:43.296Z,1.10
2019-05-13T15:59:12.865Z,1.07
2019-05-13T16:01:42.857Z,1.20
2019-05-13T16:04:13.471Z,1.10
2019-05-13T16:06:43.590Z,1.02
2019-05-13T16:09:13.196Z,1.00
2019-05-13T16:11:42.818Z,0.95
2019-05-13T16:14:12.322Z,0.93
2019-05-13T16:16:42.080Z,1.25
2019-05-13T16:19:11.619Z,1.13
2019-05-13T16:21:41.769Z,1.10
2019-05-13T16:24:12.121Z,0.90
2019-05-13T16:26:42.944Z,1.00
2019-05-13T16:29:12.801Z,1.12
2019-05-13T16:31:42.401Z,1.00
2019-05-13T16:34:13.454Z,1.20
2019-05-13T16:36:43.471Z,1.30
2019-05-13T16:39:13.039Z,1.10
2019-05-13T16:41:42.853Z,1.20
2019-05-13T16:44:12.536Z,1.17
2019-05-13T16:46:42.721Z,0.78
2019-05-13T16:49:12.417Z,1.25
2019-05-13T16:51:42.720Z,1.50
2019-05-13T16:54:12.400Z,1.50
2019-05-13T16:56:42.227Z,1.20
2019-05-13T16:59:11.950Z,1.55
2019-05-13T17:01:41.963Z,1.50
2019-05-13T17:04:12.627Z,1.12
2019-05-13T17:06:42.253Z,1.60
2019-05-13T17:09:11.813Z,1.50
2019-05-13T17:11:41.620Z,1.25
2019-05-13T17:14:11.225Z,1.30
2019-05-13T17:16:41.390Z,1.65
2019-05-13T17:19:12.087Z,1.25
2019-05-13T17:21:41.810Z,1.22
2019-05-13T17:24:12.473Z,1.20
2019-05-13T17:26:42.155Z,1.57
2019-05-13T17:29:12.202Z,1.22
2019-05-13T17:31:41.888Z,1.27
2019-05-13T17:34:12.245Z,1.10
2019-05-13T17:36:42.164Z,1.12
2019-05-13T17:39:12.577Z,1.00
2019-05-13T17:41:42.748Z,1.25
2019-05-13T17:44:12.275Z,1.30
2019-05-13T17:46:42.063Z,1.42
2019-05-13T17:49:12.041Z,1.55
2019-05-13T17:51:42.612Z,1.90
2019-05-13T17:54:12.272Z,1.35
2019-05-13T17:56:41.844Z,1.40
2019-05-13T17:59:11.711Z,1.25
2019-05-13T18:01:41.654Z,1.40
2019-05-13T18:04:12.127Z,1.40
2019-05-13T18:06:45.226Z,1.25
2019-05-13T18:09:15.083Z,1.20
2019-05-13T18:11:45.386Z,1.50
2019-05-13T18:14:15.919Z,1.60
2019-05-13T18:16:45.808Z,1.45
2019-05-13T18:19:15.279Z,1.57
2019-05-13T18:21:44.866Z,1.40
2019-05-13T18:24:14.433Z,1.40
2019-05-13T18:26:44.083Z,1.50
2019-05-13T18:29:13.900Z,1.40
2019-05-13T18:31:43.487Z,1.42
2019-05-13T18:34:13.035Z,1.47
2019-05-13T18:36:42.821Z,1.52
2019-05-13T18:39:12.614Z,1.20
2019-05-13T18:41:42.626Z,1.47
2019-05-13T18:44:12.489Z,1.50
2019-05-13T18:46:42.085Z,1.40
2019-05-13T18:49:12.098Z,1.75
2019-05-13T18:51:42.409Z,1.52
2019-05-13T18:54:12.224Z,1.20
2019-05-13T18:56:41.921Z,1.62
2019-05-13T18:59:12.556Z,1.27
2019-05-13T19:01:42.663Z,1.20
2019-05-13T19:04:12.282Z,1.47
2019-05-13T19:06:42.501Z,1.30
2019-05-13T19:09:12.074Z,1.55
2019-05-13T19:11:42.766Z,2.30
2019-05-13T19:14:12.582Z,2.92
2019-05-13T19:16:42.433Z,2.90
2019-05-13T19:19:15.708Z,1.90
2019-05-13T19:21:43.222Z,2.10
2019-05-13T19:24:13.380Z,1.82
2019-05-13T19:26:43.063Z,1.30
2019-05-13T19:29:12.645Z,1.77
2019-05-13T19:31:42.180Z,1.90
2019-05-13T19:34:12.718Z,2.27
2019-05-13T19:36:42.325Z,2.60
2019-05-13T19:39:11.775Z,2.15
2019-05-13T19:41:42.305Z,1.67
2019-05-13T19:44:11.969Z,1.67
2019-05-13T19:46:42.124Z,1.72
2019-05-13T19:49:27.234Z,1.80
2019-05-13T19:51:43.538Z,1.72
2019-05-13T19:54:12.983Z,1.80
2019-05-13T19:56:42.506Z,2.10
2019-05-13T19:59:12.592Z,1.70
2019-05-13T20:01:42.449Z,1.85
2019-05-13T20:04:11.963Z,2.10
2019-05-13T20:06:41.659Z,1.98
2019-05-13T20:09:11.160Z,1.60
2019-05-13T20:11:41.966Z,2.00
2019-05-13T20:14:12.409Z,1.80
2019-05-13T20:16:41.998Z,1.90
2019-05-13T20:19:11.887Z,2.00
2019-05-13T20:21:42.618Z,2.30
2019-05-13T20:24:12.332Z,1.83
2019-05-13T20:26:41.907Z,1.80
2019-05-13T20:29:12.368Z,1.60
2019-05-13T20:31:41.980Z,2.00
2019-05-13T20:34:11.993Z,1.62
2019-05-13T20:36:42.270Z,1.87
2019-05-13T20:39:11.899Z,1.57
2019-05-13T20:41:41.572Z,1.50
2019-05-13T20:44:11.144Z,1.73
2019-05-13T20:46:42.203Z,2.03
2019-05-13T20:49:12.202Z,1.90
2019-05-13T20:51:41.840Z,1.67
2019-05-13T20:54:11.532Z,1.80
2019-05-13T20:56:42.238Z,1.40
2019-05-13T20:59:11.961Z,1.70
2019-05-13T21:01:41.899Z,1.73
2019-05-13T21:04:12.380Z,1.40
2019-05-13T21:09:25.103Z,1.90
2019-05-13T21:11:54.643Z,1.93
2019-05-13T21:14:24.134Z,2.00
2019-05-13T21:16:53.960Z,2.20
2019-05-13T21:19:23.515Z,1.77
2019-05-13T21:21:53.222Z,2.07
2019-05-13T21:24:22.723Z,2.17
2019-05-13T21:26:52.178Z,2.03
2019-05-13T21:29:21.729Z,2.10
2019-05-13T21:31:52.950Z,1.70
2019-05-13T21:34:22.560Z,1.37
2019-05-13T21:36:52.022Z,1.83
2019-05-13T21:39:21.880Z,1.60
2019-05-13T21:41:52.290Z,1.47
2019-05-13T21:44:21.884Z,1.57
2019-05-13T21:46:52.452Z,1.77
2019-05-13T21:49:22.736Z,1.70
2019-05-13T21:51:53.317Z,1.70
2019-05-13T21:54:23.367Z,1.60
2019-05-13T21:56:52.972Z,1.60
2019-05-13T21:59:23.304Z,1.70
2019-05-13T22:01:52.916Z,1.77
2019-05-13T22:04:22.375Z,1.60
2019-05-13T22:06:52.341Z,1.60
2019-05-13T22:09:22.131Z,1.70
2019-05-13T22:11:51.644Z,1.63
2019-05-13T22:14:21.151Z,1.40
2019-05-13T22:16:51.787Z,1.43
2019-05-13T22:19:22.322Z,1.30
2019-05-13T22:21:51.858Z,1.60
2019-05-13T22:24:22.117Z,1.57
2019-05-13T22:26:51.676Z,1.70
2019-05-13T22:29:23.156Z,1.20
2019-05-13T22:31:52.446Z,1.60
2019-05-13T22:34:21.923Z,1.60
2019-05-13T22:36:51.794Z,1.50
2019-05-13T22:39:22.036Z,1.70
2019-05-13T22:41:52.409Z,1.70
2019-05-13T22:44:21.978Z,1.63
2019-05-13T22:46:56.005Z,1.57
2019-05-13T22:49:25.506Z,1.70
2019-05-13T22:51:55.052Z,1.80
2019-05-13T22:54:24.608Z,1.70
2019-05-13T22:56:54.126Z,1.60
2019-05-13T22:59:23.593Z,1.40
2019-05-13T23:01:53.076Z,1.80
2019-05-13T23:04:22.521Z,1.50
2019-05-13T23:06:52.131Z,1.63
2019-05-13T23:09:21.956Z,1.60
2019-05-13T23:11:51.482Z,1.63
2019-05-13T23:14:22.027Z,1.60
2019-05-13T23:16:51.931Z,1.57
2019-05-13T23:19:21.802Z,1.77
2019-05-13T23:21:51.315Z,1.70
2019-05-13T23:24:21.845Z,1.70
2019-05-13T23:26:51.931Z,1.40
2019-05-13T23:29:21.534Z,2.00
2019-05-13T23:31:52.027Z,1.50
2019-05-13T23:34:22.372Z,1.40
2019-05-13T23:36:51.940Z,1.60
2019-05-13T23:39:21.744Z,1.50
2019-05-13T23:41:52.213Z,1.83
2019-05-13T23:44:27.676Z,2.20
2019-05-13T23:46:53.710Z,1.13
2019-05-13T23:49:23.414Z,1.93
2019-05-13T23:51:53.170Z,1.33
2019-05-13T23:54:23.227Z,1.80
2019-05-13T23:56:52.721Z,1.90
2019-05-13T23:59:22.219Z,1.40
